Time;durP1;ratioP1;P1;durP2;ratioP2;P2;SDS_P1;SDS_P2;PMS_P1;PMS_P2;Temp;Humidity;BMP_temperature;BMP_pressure;BME280_temperature;BME280_humidity;BME280_pressure;Samples;Min_cycle;Max_cycle;Signal;HPM_P1;HPM_P2
2021/10/17 00:00:28;;;;;;;13.20;3.00;;;10.30;99.90;;;;;;5032620;28;20041;-80
2021/10/17 00:02:54;;;;;;;4.55;2.50;;;10.20;99.90;;;;;;5041083;28;20153;-80
2021/10/17 00:05:23;;;;;;;5.05;2.97;;;10.20;99.90;;;;;;5031637;28;20596;-80
2021/10/17 00:07:49;;;;;;;4.88;2.42;;;10.20;99.90;;;;;;5032729;28;20514;-79
2021/10/17 00:10:24;;;;;;;5.38;2.88;;;10.20;99.90;;;;;;5031824;28;20117;-80
2021/10/17 00:12:51;;;;;;;8.30;2.55;;;10.20;99.90;;;;;;5033914;28;20037;-80
2021/10/17 00:15:19;;;;;;;3.97;2.80;;;10.20;99.90;;;;;;5032511;28;20049;-80
2021/10/17 00:17:46;;;;;;;3.47;2.85;;;10.20;99.90;;;;;;5033426;28;20436;-80
2021/10/17 00:20:15;;;;;;;3.45;2.58;;;10.20;99.90;;;;;;5032341;28;20073;-80
2021/10/17 00:22:41;;;;;;;4.78;2.72;;;10.20;99.90;;;;;;5033525;28;20047;-79
2021/10/17 00:25:08;;;;;;;10.07;3.40;;;10.20;99.90;;;;;;5033511;28;20041;-81
2021/10/17 00:27:35;;;;;;;5.57;2.85;;;10.20;99.90;;;;;;5034194;28;20107;-81
2021/10/17 00:30:01;;;;;;;5.07;3.40;;;10.20;99.90;;;;;;5035471;28;20390;-81
2021/10/17 00:32:27;;;;;;;;;;;10.20;99.90;;;;;;5051377;28;20037;-81
2021/10/17 00:34:52;;;;;;;6.07;4.05;;;10.20;99.90;;;;;;5041047;28;20527;-81
2021/10/17 00:37:19;;;;;;;15.50;3.28;;;10.20;99.90;;;;;;5027915;28;20068;-81
2021/10/17 00:39:45;;;;;;;6.53;3.10;;;10.10;99.90;;;;;;5045679;28;20395;-80
2021/10/17 00:42:12;;;;;;;5.13;3.22;;;10.10;99.90;;;;;;5027883;28;20042;-78
2021/10/17 00:44:38;;;;;;;;;;;10.10;99.90;;;;;;5031719;28;20076;-79
2021/10/17 00:47:04;;;;;;;5.50;2.75;;;10.00;99.90;;;;;;5020419;28;20377;-79
2021/10/17 00:49:30;;;;;;;;;;;10.00;99.90;;;;;;5035891;28;20049;-79
2021/10/17 00:51:56;;;;;;;4.93;1.98;;;9.90;99.90;;;;;;5022005;28;19929;-79
2021/10/17 00:54:22;;;;;;;7.10;2.97;;;9.90;99.90;;;;;;5025781;28;20107;-78
2021/10/17 00:56:48;;;;;;;3.85;2.67;;;9.80;99.90;;;;;;5044374;28;20045;-80
2021/10/17 00:59:14;;;;;;;;;;;9.70;99.90;;;;;;5025526;28;20046;-79
2021/10/17 01:01:40;;;;;;;5.68;3.00;;;9.70;99.90;;;;;;5026140;28;19917;-79
2021/10/17 01:04:06;;;;;;;;;;;9.60;99.90;;;;;;5038933;28;20046;-80
2021/10/17 01:06:32;;;;;;;7.68;3.40;;;;;;;;;;5023884;28;19921;-79
2021/10/17 01:08:58;;;;;;;10.77;4.32;;;9.50;99.90;;;;;;5046769;28;20048;-79
2021/10/17 01:11:37;;;;;;;7.60;3.88;;;9.40;99.90;;;;;;5032166;28;20144;-80
2021/10/17 01:14:03;;;;;;;6.22;4.07;;;9.40;99.90;;;;;;5014943;28;20394;-80
2021/10/17 01:16:29;;;;;;;6.60;3.42;;;9.40;99.90;;;;;;5035424;28;20045;-79
2021/10/17 01:18:54;;;;;;;5.75;3.88;;;9.40;99.90;;;;;;5030566;28;20092;-79
2021/10/17 01:21:23;;;;;;;6.05;2.83;;;9.30;99.90;;;;;;5030287;28;20053;-79
2021/10/17 01:23:49;;;;;;;6.18;3.78;;;9.30;99.90;;;;;;5031186;28;20131;-80
2021/10/17 01:26:14;;;;;;;2.85;2.25;;;9.30;99.90;;;;;;5002620;28;20555;-78
2021/10/17 01:28:40;;;;;;;5.65;3.15;;;9.30;99.90;;;;;;5023185;28;20052;-80
2021/10/17 01:31:06;;;;;;;5.43;3.15;;;9.20;99.90;;;;;;5030748;28;20098;-79
2021/10/17 01:33:31;;;;;;;6.57;4.45;;;9.30;99.90;;;;;;5023393;28;20517;-80
2021/10/17 01:35:57;;;;;;;8.30;4.60;;;9.20;99.90;;;;;;5029405;28;20040;-79
2021/10/17 01:38:23;;;;;;;4.60;3.08;;;9.20;99.90;;;;;;5018057;28;20556;-79
2021/10/17 01:40:48;;;;;;;8.10;4.50;;;9.20;99.90;;;;;;5023907;28;20072;-79
2021/10/17 01:43:15;;;;;;;8.00;3.92;;;9.20;99.90;;;;;;5028202;28;20390;-79
2021/10/17 01:45:40;;;;;;;;;;;9.10;99.90;;;;;;5001127;28;20049;-79
2021/10/17 01:48:09;;;;;;;7.57;4.03;;;9.10;99.90;;;;;;5042456;28;19921;-80
2021/10/17 01:50:34;;;;;;;7.90;3.72;;;9.10;99.90;;;;;;5023779;28;20048;-80
2021/10/17 01:53:00;;;;;;;7.60;2.58;;;9.00;99.90;;;;;;5028281;28;20416;-80
2021/10/17 01:55:26;;;;;;;5.93;4.22;;;9.00;99.90;;;;;;5018114;28;20052;-79
2021/10/17 01:57:52;;;;;;;;;;;9.00;99.90;;;;;;5050020;28;20095;-80
2021/10/17 02:00:17;;;;;;;6.78;2.90;;;9.00;99.90;;;;;;5028961;28;19921;-79
2021/10/17 02:02:43;;;;;;;8.88;4.30;;;9.00;99.90;;;;;;5016263;28;20038;-79
2021/10/17 02:05:09;;;;;;;11.07;4.28;;;9.00;99.90;;;;;;5018984;28;20061;-79
2021/10/17 02:07:35;;;;;;;6.63;3.47;;;9.00;99.90;;;;;;5015392;28;20088;-80
2021/10/17 02:10:00;;;;;;;4.68;3.45;;;9.00;99.90;;;;;;5032667;28;20068;-80
2021/10/17 02:12:26;;;;;;;4.82;1.90;;;8.90;99.90;;;;;;5009051;28;20041;-79
2021/10/17 02:14:53;;;;;;;2.88;2.00;;;9.00;99.90;;;;;;5017055;28;20061;-80
2021/10/17 02:17:19;;;;;;;6.70;3.72;;;9.00;99.90;;;;;;5032133;28;20486;-80
2021/10/17 02:19:45;;;;;;;9.45;4.30;;;8.90;99.90;;;;;;5027299;28;20094;-81
2021/10/17 02:22:11;;;;;;;4.03;2.42;;;8.90;99.90;;;;;;5034752;28;20044;-81
2021/10/17 02:24:37;;;;;;;4.60;2.72;;;8.80;99.90;;;;;;5020411;28;20041;-81
2021/10/17 02:27:03;;;;;;;3.80;3.22;;;8.80;99.90;;;;;;5014011;28;20036;-81
2021/10/17 02:29:29;;;;;;;4.80;3.17;;;8.80;99.90;;;;;;5034537;28;20044;-80
2021/10/17 02:31:59;;;;;;;8.10;4.15;;;8.70;99.90;;;;;;5033441;28;20116;-80
2021/10/17 02:34:25;;;;;;;6.05;3.30;;;8.70;99.90;;;;;;4994020;28;20049;-81
2021/10/17 02:36:51;;;;;;;12.90;3.13;;;8.70;99.90;;;;;;5037625;28;20041;-79
2021/10/17 02:39:17;;;;;;;;;;;8.60;99.90;;;;;;5021248;28;20406;-79
2021/10/17 02:41:43;;;;;;;5.55;3.83;;;8.60;99.90;;;;;;5031548;28;19917;-79
2021/10/17 02:44:09;;;;;;;10.48;3.28;;;8.60;99.90;;;;;;5016291;28;20045;-78
2021/10/17 02:46:34;;;;;;;3.88;2.80;;;8.60;99.90;;;;;;5022873;28;20037;-80
2021/10/17 02:49:00;;;;;;;5.85;4.47;;;8.60;99.90;;;;;;5027237;28;20068;-80
2021/10/17 02:51:26;;;;;;;5.50;3.65;;;8.60;99.90;;;;;;5032472;28;20402;-79
2021/10/17 02:53:52;;;;;;;4.95;3.58;;;8.70;99.90;;;;;;5015262;28;20034;-80
2021/10/17 02:56:18;;;;;;;6.10;2.95;;;8.60;99.90;;;;;;5042061;28;20494;-80
2021/10/17 02:58:45;;;;;;;10.23;4.43;;;8.60;99.90;;;;;;5016726;28;20455;-80
2021/10/17 03:01:10;;;;;;;4.32;2.72;;;8.60;99.90;;;;;;5015329;28;20413;-79
2021/10/17 03:03:36;;;;;;;8.77;4.95;;;8.60;99.90;;;;;;4996795;28;20037;-80
2021/10/17 03:06:02;;;;;;;4.25;3.45;;;8.70;99.90;;;;;;5017608;28;20044;-80
2021/10/17 03:08:28;;;;;;;5.05;2.58;;;8.70;99.90;;;;;;5033504;28;20087;-81
2021/10/17 03:10:54;;;;;;;8.48;4.30;;;8.70;99.90;;;;;;5015034;28;20735;-80
2021/10/17 03:13:19;;;;;;;5.63;4.05;;;8.80;99.90;;;;;;5030682;28;20044;-80
2021/10/17 03:15:45;;;;;;;5.20;3.80;;;8.80;99.90;;;;;;5001060;28;20123;-80
2021/10/17 03:18:11;;;;;;;4.75;2.90;;;8.80;99.90;;;;;;5012492;28;20139;-79
2021/10/17 03:20:36;;;;;;;5.13;3.33;;;8.90;99.90;;;;;;5028310;28;20055;-80
2021/10/17 03:23:02;;;;;;;5.13;3.03;;;8.90;99.90;;;;;;5013937;28;20136;-80
2021/10/17 03:25:28;;;;;;;4.53;3.72;;;8.90;99.90;;;;;;5041778;28;20060;-80
2021/10/17 03:27:54;;;;;;;9.27;4.13;;;8.90;99.90;;;;;;5012149;28;20033;-79
2021/10/17 03:30:19;;;;;;;6.82;3.13;;;9.00;99.90;;;;;;5007793;28;20132;-79
2021/10/17 03:32:45;;;;;;;9.00;4.18;;;9.00;99.90;;;;;;5037004;28;20082;-80
2021/10/17 03:35:11;;;;;;;13.50;4.03;;;9.00;99.90;;;;;;4997164;28;20411;-79
2021/10/17 03:37:36;;;;;;;5.47;3.67;;;9.00;99.90;;;;;;5011359;28;20045;-79
2021/10/17 03:40:03;;;;;;;5.10;3.63;;;9.00;99.90;;;;;;5007986;28;20056;-79
2021/10/17 03:42:29;;;;;;;16.15;3.80;;;9.10;99.90;;;;;;5026443;28;20053;-79
2021/10/17 03:44:54;;;;;;;10.50;4.28;;;9.10;99.90;;;;;;5017250;28;20048;-80
2021/10/17 03:47:20;;;;;;;5.38;4.03;;;9.10;99.90;;;;;;5012169;28;20037;-79
2021/10/17 03:49:46;;;;;;;8.95;5.03;;;9.20;99.90;;;;;;5028302;28;20044;-79
2021/10/17 03:52:12;;;;;;;5.10;3.72;;;9.20;99.90;;;;;;5018023;28;20037;-80
2021/10/17 03:54:41;;;;;;;9.85;5.38;;;9.20;99.90;;;;;;5013962;28;20099;-80
2021/10/17 03:57:07;;;;;;;7.82;4.15;;;9.20;99.90;;;;;;5014096;28;20436;-81
2021/10/17 03:59:33;;;;;;;7.60;3.80;;;9.20;99.90;;;;;;5016750;28;20068;-79
2021/10/17 04:01:59;;;;;;;5.97;4.15;;;9.20;99.90;;;;;;5013638;28;20080;-79
2021/10/17 04:04:25;;;;;;;4.93;2.95;;;9.20;99.90;;;;;;5020147;28;20049;-80
2021/10/17 04:06:51;;;;;;;3.65;3.35;;;9.20;99.90;;;;;;5031254;28;20052;-80
2021/10/17 04:09:16;;;;;;;4.53;3.28;;;9.20;99.90;;;;;;5027257;28;20048;-81
2021/10/17 04:11:42;;;;;;;2.88;2.33;;;9.20;99.90;;;;;;5002769;28;20045;-80
2021/10/17 04:14:08;;;;;;;5.25;3.42;;;9.20;99.90;;;;;;5005561;28;20067;-81
2021/10/17 04:16:33;;;;;;;6.80;3.13;;;9.20;99.90;;;;;;5000684;28;20096;-79
2021/10/17 04:18:59;;;;;;;2.63;2.20;;;9.20;99.90;;;;;;5013632;28;20136;-78
2021/10/17 04:21:25;;;;;;;3.47;2.60;;;9.20;99.90;;;;;;5032286;28;20117;-80
2021/10/17 04:23:50;;;;;;;5.70;2.72;;;9.20;99.90;;;;;;4997750;28;20048;-80
2021/10/17 04:26:16;;;;;;;3.88;2.88;;;9.20;99.90;;;;;;5032989;28;20049;-81
2021/10/17 04:28:42;;;;;;;9.77;3.67;;;9.20;99.90;;;;;;5012344;28;20360;-81
2021/10/17 04:31:08;;;;;;;4.38;2.75;;;9.20;99.90;;;;;;5030443;28;20036;-81
2021/10/17 04:33:33;;;;;;;3.25;2.63;;;9.30;99.90;;;;;;5021776;28;20499;-81
2021/10/17 04:35:59;;;;;;;9.77;3.15;;;9.30;99.90;;;;;;4998426;28;20101;-81
2021/10/17 04:38:25;;;;;;;15.43;2.65;;;9.40;99.90;;;;;;5004149;28;20045;-80
2021/10/17 04:40:51;;;;;;;4.88;3.00;;;9.40;99.90;;;;;;5027802;28;20077;-80
2021/10/17 04:43:16;;;;;;;4.70;3.55;;;9.30;99.90;;;;;;5018823;28;20081;-81
2021/10/17 04:45:42;;;;;;;5.93;3.53;;;9.40;99.90;;;;;;5019361;28;20033;-81
2021/10/17 04:48:08;;;;;;;4.88;2.70;;;9.40;99.90;;;;;;5030697;28;20045;-81
2021/10/17 04:50:34;;;;;;;2.35;2.15;;;9.30;99.90;;;;;;5019275;28;20041;-81
2021/10/17 04:52:59;;;;;;;8.25;2.92;;;9.30;99.90;;;;;;5031833;28;20102;-80
2021/10/17 04:55:25;;;;;;;2.95;2.65;;;9.20;99.90;;;;;;5030743;28;20445;-80
2021/10/17 04:57:51;;;;;;;5.28;2.83;;;9.30;99.90;;;;;;5024492;28;20046;-80
2021/10/17 05:00:16;;;;;;;4.57;3.15;;;9.30;99.90;;;;;;5026232;28;20364;-80
2021/10/17 05:02:42;;;;;;;2.83;2.47;;;9.30;99.90;;;;;;5033590;28;20037;-79
2021/10/17 05:05:09;;;;;;;5.57;3.55;;;9.40;99.90;;;;;;5016038;28;20510;-81
2021/10/17 05:07:35;;;;;;;4.55;3.42;;;9.40;99.90;;;;;;5031760;28;20042;-80
2021/10/17 05:10:01;;;;;;;5.63;3.17;;;9.40;99.90;;;;;;5024268;28;20046;-79
2021/10/17 05:12:26;;;;;;;4.63;3.08;;;9.40;99.90;;;;;;5028063;28;20045;-80
2021/10/17 05:14:52;;;;;;;3.35;2.92;;;9.40;99.90;;;;;;5020365;28;20109;-79
2021/10/17 05:17:18;;;;;;;3.35;3.05;;;9.40;99.90;;;;;;5011354;28;20045;-79
2021/10/17 05:19:44;;;;;;;2.88;2.33;;;9.40;99.90;;;;;;4991902;28;20062;-79
2021/10/17 05:22:09;;;;;;;4.97;3.15;;;9.40;99.90;;;;;;5016629;28;20490;-79
2021/10/17 05:24:35;;;;;;;7.10;3.53;;;9.40;99.90;;;;;;4999747;28;20049;-79
2021/10/17 05:27:01;;;;;;;6.20;2.83;;;9.40;99.90;;;;;;5021635;28;20042;-79
2021/10/17 05:29:27;;;;;;;6.03;3.13;;;9.40;99.90;;;;;;5018332;28;20049;-79
2021/10/17 05:31:53;;;;;;;;;;;9.40;99.90;;;;;;5022771;28;20050;-79
2021/10/17 05:34:18;;;;;;;3.10;2.55;;;9.40;99.90;;;;;;5026324;28;20009;-79
2021/10/17 05:36:44;;;;;;;3.05;2.17;;;9.40;99.90;;;;;;5016728;28;20391;-80
2021/10/17 05:39:10;;;;;;;3.58;2.53;;;9.40;99.90;;;;;;5007930;28;20037;-80
2021/10/17 05:41:36;;;;;;;4.80;2.58;;;9.40;99.90;;;;;;5021312;28;20196;-79
2021/10/17 05:44:02;;;;;;;3.33;2.35;;;9.40;99.90;;;;;;5009930;28;20455;-79
2021/10/17 05:46:28;;;;;;;4.55;2.58;;;9.40;99.90;;;;;;5020968;28;20041;-80
2021/10/17 05:48:54;;;;;;;6.00;3.22;;;9.50;99.90;;;;;;5020413;28;20398;-80
2021/10/17 05:51:20;;;;;;;7.32;2.75;;;9.40;99.90;;;;;;5037328;28;20053;-80
2021/10/17 05:53:45;;;;;;;5.18;2.88;;;9.50;99.90;;;;;;5017139;28;20049;-80
2021/10/17 05:56:11;;;;;;;8.23;2.97;;;9.50;99.90;;;;;;5021377;28;20037;-79
2021/10/17 05:58:37;;;;;;;3.90;2.88;;;9.50;99.90;;;;;;5023398;28;20042;-79
2021/10/17 06:01:03;;;;;;;2.90;2.40;;;9.50;99.90;;;;;;5022114;28;20109;-80
2021/10/17 06:03:29;;;;;;;3.05;2.58;;;9.50;99.90;;;;;;5002358;28;20052;-79
2021/10/17 06:06:01;;;;;;;3.60;2.28;;;9.50;99.90;;;;;;5032917;28;20042;-79
2021/10/17 06:08:31;;;;;;;6.43;2.90;;;9.50;99.90;;;;;;5000400;28;20337;-80
2021/10/17 06:10:57;;;;;;;3.22;2.42;;;9.50;99.90;;;;;;5019850;28;20046;-80
2021/10/17 06:13:22;;;;;;;3.08;1.92;;;9.50;99.90;;;;;;5017019;28;20069;-79
2021/10/17 06:15:48;;;;;;;3.88;2.42;;;9.50;99.90;;;;;;5016214;28;20080;-79
2021/10/17 06:18:14;;;;;;;3.72;2.47;;;9.50;99.90;;;;;;5015206;28;20058;-79
2021/10/17 06:20:40;;;;;;;3.35;2.70;;;9.50;99.90;;;;;;5019637;28;20045;-81
2021/10/17 06:23:06;;;;;;;3.63;2.53;;;9.50;99.90;;;;;;5019775;28;20500;-80
2021/10/17 06:25:31;;;;;;;4.10;2.80;;;9.50;99.90;;;;;;5026953;28;20103;-80
2021/10/17 06:27:57;;;;;;;1.90;1.75;;;9.50;99.90;;;;;;5013581;28;20471;-80
2021/10/17 06:30:23;;;;;;;5.70;2.88;;;9.50;99.90;;;;;;5031419;28;20042;-78
2021/10/17 06:32:48;;;;;;;2.90;2.33;;;9.50;99.90;;;;;;5008718;28;20080;-79
2021/10/17 06:35:14;;;;;;;8.77;3.30;;;9.50;99.90;;;;;;5011350;28;20130;-79
2021/10/17 06:37:40;;;;;;;2.65;1.45;;;9.60;99.90;;;;;;5015734;28;20045;-79
2021/10/17 06:40:06;;;;;;;;;;;9.50;99.90;;;;;;5011780;28;20038;-80
2021/10/17 06:42:32;;;;;;;5.30;3.42;;;9.50;99.90;;;;;;5025378;28;19986;-80
2021/10/17 06:44:58;;;;;;;3.33;1.85;;;9.60;99.90;;;;;;5020778;28;20033;-79
2021/10/17 06:47:24;;;;;;;3.20;2.53;;;9.60;99.90;;;;;;5009449;28;20091;-79
2021/10/17 06:49:49;;;;;;;6.25;3.17;;;9.60;99.90;;;;;;5023792;28;20098;-79
2021/10/17 06:52:15;;;;;;;3.03;2.28;;;9.60;99.90;;;;;;5024749;28;20034;-80
2021/10/17 06:54:41;;;;;;;5.13;2.88;;;9.60;99.90;;;;;;5019812;28;20398;-77
2021/10/17 06:57:07;;;;;;;7.53;3.47;;;9.60;99.90;;;;;;5006733;28;20036;-78
2021/10/17 06:59:33;;;;;;;4.93;3.10;;;9.60;99.90;;;;;;4997906;28;20041;-79
2021/10/17 07:01:59;;;;;;;8.45;2.97;;;9.70;99.90;;;;;;4999069;28;20398;-78
2021/10/17 07:04:25;;;;;;;2.65;2.13;;;9.60;99.90;;;;;;5008578;28;20395;-79
2021/10/17 07:06:50;;;;;;;7.07;3.15;;;9.60;99.90;;;;;;5014770;28;20127;-79
2021/10/17 07:09:16;;;;;;;4.28;2.50;;;9.60;99.90;;;;;;5014669;28;20041;-80
2021/10/17 07:11:43;;;;;;;3.65;2.83;;;9.60;99.90;;;;;;5042253;28;20069;-80
2021/10/17 07:14:09;;;;;;;5.55;3.05;;;9.60;99.90;;;;;;5041625;28;20037;-79
2021/10/17 07:16:34;;;;;;;6.15;2.92;;;9.60;99.90;;;;;;5025033;28;20099;-79
2021/10/17 07:19:00;;;;;;;3.00;2.20;;;9.60;99.90;;;;;;4992371;28;20064;-81
2021/10/17 07:21:26;;;;;;;4.35;2.85;;;9.60;99.90;;;;;;5029145;28;20049;-81
2021/10/17 07:23:52;;;;;;;6.40;2.42;;;9.60;99.90;;;;;;5014358;28;20037;-80
2021/10/17 07:26:17;;;;;;;3.42;3.10;;;9.70;99.90;;;;;;5014522;28;20045;-81
2021/10/17 07:28:43;;;;;;;7.22;4.38;;;9.70;99.90;;;;;;5030830;28;20494;-79
2021/10/17 07:31:09;;;;;;;2.28;2.08;;;9.80;99.90;;;;;;5033023;28;20097;-80
2021/10/17 07:33:35;;;;;;;3.72;1.77;;;9.80;99.90;;;;;;5023058;28;20041;-80
2021/10/17 07:36:01;;;;;;;5.47;2.55;;;9.80;99.90;;;;;;5030530;28;20102;-79
2021/10/17 07:38:27;;;;;;;9.32;2.70;;;9.80;99.90;;;;;;5029974;28;20049;-80
2021/10/17 07:40:53;;;;;;;3.95;2.70;;;9.80;99.90;;;;;;5027036;28;20046;-80
2021/10/17 07:43:18;;;;;;;9.30;2.80;;;9.90;99.90;;;;;;5014432;28;20128;-80
2021/10/17 07:45:44;;;;;;;5.43;2.72;;;9.90;99.90;;;;;;5030307;28;20399;-78
2021/10/17 07:48:11;;;;;;;4.35;2.67;;;9.90;99.90;;;;;;5027304;28;20399;-76
2021/10/17 07:50:37;;;;;;;8.27;3.55;;;9.90;99.90;;;;;;5044707;28;20048;-76
2021/10/17 07:53:03;;;;;;;4.18;2.60;;;10.00;99.90;;;;;;5031223;28;20541;-78
2021/10/17 07:55:29;;;;;;;3.67;2.58;;;10.00;99.90;;;;;;5014535;28;20120;-78
2021/10/17 07:57:55;;;;;;;3.70;1.77;;;10.00;99.90;;;;;;5030655;28;20450;-78
2021/10/17 08:00:25;;;;;;;;;;;10.00;99.90;;;;;;5046608;28;20037;-79
2021/10/17 08:02:51;;;;;;;3.38;2.55;;;10.10;99.90;;;;;;5041997;28;20006;-79
2021/10/17 08:05:17;;;;;;;5.25;2.65;;;10.10;99.90;;;;;;5031102;28;20065;-79
2021/10/17 08:07:43;;;;;;;5.10;2.47;;;10.10;99.90;;;;;;5031835;28;20057;-80
2021/10/17 08:10:09;;;;;;;6.13;3.13;;;10.20;99.90;;;;;;5014396;28;20045;-79
2021/10/17 08:12:36;;;;;;;3.65;2.85;;;10.20;99.90;;;;;;5027586;28;20049;-80
2021/10/17 08:15:02;;;;;;;5.82;2.85;;;10.20;99.90;;;;;;5029876;28;20041;-80
2021/10/17 08:17:28;;;;;;;5.65;3.67;;;10.20;99.90;;;;;;5039683;28;20034;-77
2021/10/17 08:19:54;;;;;;;3.55;3.10;;;10.20;99.90;;;;;;5030168;28;20119;-76
2021/10/17 08:22:20;;;;;;;11.90;3.00;;;10.20;99.90;;;;;;5047125;28;20029;-77
2021/10/17 08:24:47;;;;;;;4.50;2.33;;;10.30;99.90;;;;;;4996562;28;20159;-76
2021/10/17 08:27:13;;;;;;;3.80;2.55;;;10.30;99.90;;;;;;5030332;28;20081;-77
2021/10/17 08:29:39;;;;;;;3.13;2.00;;;10.20;99.90;;;;;;5030440;28;20088;-77
2021/10/17 08:32:05;;;;;;;1.95;1.70;;;10.30;99.90;;;;;;5032708;28;20038;-77
2021/10/17 08:34:31;;;;;;;;;;;10.30;99.90;;;;;;5031206;28;20045;-77
2021/10/17 08:36:56;;;;;;;3.85;2.40;;;10.30;99.90;;;;;;5027136;28;19928;-79
2021/10/17 08:39:22;;;;;;;5.10;3.22;;;10.30;99.90;;;;;;5028866;28;20406;-79
2021/10/17 08:41:48;;;;;;;6.32;3.20;;;10.30;99.90;;;;;;5032675;28;20132;-81
2021/10/17 08:44:14;;;;;;;6.57;3.20;;;10.40;99.90;;;;;;5015634;28;20364;-77
2021/10/17 08:46:41;;;;;;;5.00;2.70;;;10.40;99.90;;;;;;5013584;28;20045;-75
2021/10/17 08:49:08;;;;;;;3.20;2.75;;;10.50;99.90;;;;;;4995678;28;20081;-76
2021/10/17 08:51:36;;;;;;;4.88;2.70;;;10.50;99.90;;;;;;5030331;28;20099;-75
2021/10/17 08:54:01;;;;;;;3.08;2.58;;;10.60;99.90;;;;;;5026057;28;20034;-77
2021/10/17 08:56:27;;;;;;;3.03;1.90;;;10.70;99.90;;;;;;5029441;28;20103;-75
2021/10/17 08:58:53;;;;;;;4.47;2.53;;;10.60;99.90;;;;;;5046261;28;20101;-77
2021/10/17 09:01:19;;;;;;;3.47;3.17;;;10.70;99.90;;;;;;5029369;28;20053;-75
2021/10/17 09:03:53;;;;;;;;;;;10.70;99.90;;;;;;4998166;28;20050;-77
2021/10/17 09:06:26;;;;;;;4.05;2.47;;;10.60;99.90;;;;;;5031588;28;19921;-77
2021/10/17 09:09:24;;;;;;;8.23;2.38;;;10.70;99.90;;;;;;5014613;28;20425;-78
2021/10/17 09:11:58;;;;;;;6.40;2.67;;;10.70;99.90;;;;;;5027635;28;20041;-78
2021/10/17 09:14:27;;;;;;;4.22;2.53;;;10.70;99.90;;;;;;5031012;28;20037;-77
2021/10/17 09:16:55;;;;;;;3.50;3.05;;;10.70;99.90;;;;;;5012854;28;20099;-79
2021/10/17 09:19:29;;;;;;;4.97;2.88;;;10.70;99.90;;;;;;5009849;28;20053;-77
2021/10/17 09:22:13;;;;;;;3.72;2.88;;;10.70;99.90;;;;;;5029783;28;20140;-79
2021/10/17 09:24:47;;;;;;;3.45;2.60;;;10.80;99.90;;;;;;5021952;28;20041;-80
2021/10/17 09:27:24;;;;;;;5.90;2.88;;;10.80;99.90;;;;;;5040999;28;20049;-80
2021/10/17 09:29:55;;;;;;;4.03;2.80;;;10.80;99.90;;;;;;5044734;28;20502;-78
2021/10/17 09:32:25;;;;;;;8.15;3.35;;;10.80;99.90;;;;;;5029948;28;20045;-77
2021/10/17 09:35:03;;;;;;;5.57;3.05;;;10.90;99.90;;;;;;5033230;28;20047;-76
2021/10/17 09:37:34;;;;;;;5.32;2.90;;;10.90;99.90;;;;;;5016900;28;20430;-78
2021/10/17 09:40:20;;;;;;;4.50;3.13;;;10.90;99.90;;;;;;5035548;28;20127;-76
2021/10/17 09:43:21;;;;;;;5.07;2.95;;;10.90;99.90;;;;;;5032588;28;20068;-76
2021/10/17 09:45:47;;;;;;;9.80;3.55;;;11.00;99.90;;;;;;5043522;28;20103;-77
2021/10/17 09:48:29;;;;;;;1.98;1.65;;;11.00;99.90;;;;;;5049500;28;20124;-79
2021/10/17 09:51:14;;;;;;;2.67;2.28;;;11.00;99.90;;;;;;5027725;28;20046;-77
2021/10/17 09:53:39;;;;;;;3.00;2.63;;;11.00;99.90;;;;;;5014852;28;20040;-77
2021/10/17 09:56:07;;;;;;;7.05;2.53;;;11.10;99.90;;;;;;5031867;28;20053;-79
2021/10/17 09:58:33;;;;;;;3.33;2.30;;;11.10;99.90;;;;;;5030959;28;20057;-79
2021/10/17 10:01:00;;;;;;;2.95;2.60;;;11.10;99.90;;;;;;5015814;28;20037;-78
2021/10/17 10:03:27;;;;;;;5.68;2.85;;;11.20;99.90;;;;;;5015225;28;20046;-79
2021/10/17 10:05:57;;;;;;;4.80;3.53;;;11.20;99.90;;;;;;5031349;28;20075;-79
2021/10/17 10:08:28;;;;;;;5.03;3.20;;;11.50;99.90;;;;;;5031375;28;20049;-78
2021/10/17 10:10:54;;;;;;;3.60;2.47;;;11.60;99.90;;;;;;5049701;28;20116;-77
2021/10/17 10:13:21;;;;;;;3.58;2.22;;;11.70;99.90;;;;;;5029602;28;20048;-77
2021/10/17 10:15:48;;;;;;;10.85;3.30;;;11.80;99.90;;;;;;5000195;28;20041;-79
2021/10/17 10:18:15;;;;;;;6.78;2.75;;;11.90;99.90;;;;;;5031862;28;20577;-80
2021/10/17 10:20:42;;;;;;;8.82;3.50;;;12.00;99.90;;;;;;5034233;28;20051;-80
2021/10/17 10:23:11;;;;;;;6.72;3.78;;;12.00;99.90;;;;;;5051609;28;20541;-77
2021/10/17 10:25:38;;;;;;;6.55;2.40;;;12.20;99.90;;;;;;5034991;28;20045;-77
2021/10/17 10:28:09;;;;;;;8.13;3.33;;;12.20;99.90;;;;;;5015380;28;20052;-77
2021/10/17 10:30:38;;;;;;;7.10;3.35;;;12.20;99.90;;;;;;5029737;28;20045;-78
2021/10/17 10:33:06;;;;;;;8.93;3.95;;;12.20;99.90;;;;;;5019024;28;20064;-80
2021/10/17 10:35:33;;;;;;;5.40;2.58;;;12.20;99.90;;;;;;5018299;28;20048;-76
2021/10/17 10:37:59;;;;;;;7.28;3.67;;;12.20;99.90;;;;;;5019513;28;20051;-79
2021/10/17 10:40:25;;;;;;;3.25;2.35;;;12.10;99.90;;;;;;5034392;28;20094;-79
2021/10/17 10:42:52;;;;;;;6.07;3.45;;;12.10;99.90;;;;;;5016996;28;20474;-79
2021/10/17 10:45:35;;;;;;;2.95;2.28;;;12.10;99.90;;;;;;5017782;28;20090;-78
2021/10/17 10:48:13;;;;;;;3.35;2.47;;;12.10;99.90;;;;;;5014690;28;20086;-77
2021/10/17 10:50:43;;;;;;;5.00;2.85;;;12.10;99.90;;;;;;5035409;28;20521;-78
2021/10/17 10:53:10;;;;;;;2.78;1.92;;;12.20;99.90;;;;;;5052747;28;20425;-78
2021/10/17 10:55:41;;;;;;;3.60;2.47;;;12.20;99.90;;;;;;5017780;28;20478;-77
2021/10/17 10:58:35;;;;;;;6.82;3.05;;;12.20;99.90;;;;;;5017873;28;20482;-79
2021/10/17 11:01:02;;;;;;;3.15;2.45;;;12.30;99.90;;;;;;5052187;28;20076;-79
2021/10/17 11:03:41;;;;;;;4.97;2.65;;;12.30;99.90;;;;;;5033997;28;20111;-78
2021/10/17 11:06:10;;;;;;;2.90;2.03;;;12.30;99.90;;;;;;5051211;28;20037;-80
2021/10/17 11:08:38;;;;;;;6.13;2.90;;;12.40;99.90;;;;;;5016092;28;20589;-79
2021/10/17 11:11:07;;;;;;;2.92;2.30;;;12.40;99.90;;;;;;5035197;28;20045;-79
2021/10/17 11:13:40;;;;;;;4.13;2.97;;;12.50;99.90;;;;;;5048528;28;20037;-76
2021/10/17 11:16:21;;;;;;;7.28;3.80;;;12.60;99.90;;;;;;5018868;28;20036;-78
2021/10/17 11:19:00;;;;;;;3.95;1.95;;;12.70;99.90;;;;;;5015362;28;20453;-79
2021/10/17 11:21:30;;;;;;;5.50;2.90;;;12.70;99.90;;;;;;5034647;28;20052;-78
2021/10/17 11:23:56;;;;;;;5.03;2.50;;;12.70;99.90;;;;;;5037867;28;20045;-78
2021/10/17 11:26:22;;;;;;;4.13;2.30;;;12.70;99.90;;;;;;5036401;28;20051;-80
2021/10/17 11:28:50;;;;;;;6.80;2.90;;;12.60;99.90;;;;;;5017975;28;20045;-78
2021/10/17 11:31:25;;;;;;;3.05;2.75;;;12.60;99.90;;;;;;5017790;28;20116;-80
2021/10/17 11:33:51;;;;;;;3.10;1.88;;;12.50;99.90;;;;;;5034071;28;20043;-77
2021/10/17 11:36:17;;;;;;;;;;;12.50;99.90;;;;;;5018363;28;20090;-77
2021/10/17 11:38:44;;;;;;;5.93;3.03;;;12.50;99.90;;;;;;5017088;28;19964;-77
2021/10/17 11:41:12;;;;;;;7.32;3.38;;;12.50;99.90;;;;;;5034633;28;20402;-78
2021/10/17 11:43:39;;;;;;;4.90;2.45;;;12.50;99.90;;;;;;5017720;28;20357;-78
2021/10/17 11:46:14;;;;;;;2.72;1.98;;;12.50;99.90;;;;;;5034065;28;20042;-81
2021/10/17 11:48:44;;;;;;;4.90;2.35;;;12.50;99.90;;;;;;5028170;28;20044;-81
2021/10/17 11:51:13;;;;;;;2.90;2.10;;;12.50;99.90;;;;;;5018586;28;20043;-78
2021/10/17 11:53:39;;;;;;;6.43;2.13;;;12.50;99.90;;;;;;5033348;28;20119;-78
2021/10/17 11:56:09;;;;;;;4.00;2.78;;;12.50;99.90;;;;;;5051165;28;20448;-79
2021/10/17 11:58:37;;;;;;;3.95;3.03;;;12.60;99.90;;;;;;5033019;28;20040;-77
2021/10/17 12:01:14;;;;;;;4.10;2.30;;;12.60;99.90;;;;;;5033387;28;20048;-80
2021/10/17 12:03:42;;;;;;;8.10;3.30;;;12.60;99.90;;;;;;5032441;28;20041;-77
2021/10/17 12:06:15;;;;;;;6.60;2.60;;;12.60;99.90;;;;;;5051614;28;20052;-79
2021/10/17 12:08:49;;;;;;;4.20;2.75;;;12.60;99.90;;;;;;5043894;28;20391;-80
2021/10/17 12:11:15;;;;;;;2.45;1.67;;;12.70;99.90;;;;;;5016597;28;20178;-80
2021/10/17 12:13:42;;;;;;;2.53;1.75;;;12.70;99.90;;;;;;5033638;28;20475;-80
2021/10/17 12:16:13;;;;;;;2.67;2.22;;;12.70;99.90;;;;;;5018098;28;20163;-78
2021/10/17 12:18:47;;;;;;;4.70;2.53;;;12.70;99.90;;;;;;5032561;28;20080;-79
2021/10/17 12:21:17;;;;;;;3.53;2.60;;;12.80;99.90;;;;;;5039315;28;20393;-78
2021/10/17 12:23:44;;;;;;;4.57;2.03;;;12.80;99.90;;;;;;5036952;28;20049;-80
2021/10/17 12:26:24;;;;;;;8.15;2.33;;;12.90;99.90;;;;;;5018246;28;20052;-78
2021/10/17 12:29:05;;;;;;;3.42;1.75;;;12.90;99.90;;;;;;5017849;28;20126;-78
2021/10/17 12:31:32;;;;;;;3.90;2.80;;;13.00;99.90;;;;;;5050972;28;20033;-79
2021/10/17 12:33:59;;;;;;;3.03;1.98;;;13.00;99.90;;;;;;5013893;28;20040;-78
2021/10/17 12:36:26;;;;;;;7.60;2.33;;;13.10;99.90;;;;;;5014377;28;20095;-79
2021/10/17 12:39:03;;;;;;;;;;;13.10;99.90;;;;;;5032970;28;20147;-81
2021/10/17 12:41:30;;;;;;;6.53;2.33;;;13.20;99.90;;;;;;5037967;28;19920;-79
2021/10/17 12:44:01;;;;;;;4.15;2.08;;;13.30;99.90;;;;;;5020399;28;20056;-77
2021/10/17 12:46:27;;;;;;;13.25;3.63;;;13.30;99.90;;;;;;5038825;28;20037;-78
2021/10/17 12:48:53;;;;;;;5.22;2.55;;;13.40;99.90;;;;;;5036315;28;20059;-78
2021/10/17 12:51:37;;;;;;;3.40;2.50;;;13.40;99.90;;;;;;5037548;28;20076;-80
2021/10/17 12:54:06;;;;;;;2.03;1.45;;;13.40;99.90;;;;;;5036623;28;20497;-80
2021/10/17 12:56:33;;;;;;;2.17;1.92;;;13.40;99.90;;;;;;5037308;28;20124;-79